Time;durP1;ratioP1;P1;durP2;ratioP2;P2;SDS_P1;SDS_P2;PMS_P1;PMS_P2;Temp;Humidity;BMP_temperature;BMP_pressure;BME280_temperature;BME280_humidity;BME280_pressure;Samples;Min_cycle;Max_cycle;Signal;HPM_P1;HPM_P2
2023/04/17 00:01:59;;;;;;;40.85;29.20;;;;;;;-148.88;100.00;76870.16;5052745;28;20064;-84
2023/04/17 00:04:25;;;;;;;37.15;28.35;;;;;;;-148.88;100.00;76866.09;5051323;28;20140;-84
2023/04/17 00:06:52;;;;;;;35.30;17.92;;;;;;;-148.88;100.00;76876.25;5052477;28;20025;-84
2023/04/17 00:09:18;;;;;;;35.78;28.25;;;;;;;-148.88;100.00;76878.28;5052687;28;20039;-84
2023/04/17 00:11:43;;;;;;;30.52;15.07;;;;;;;-148.88;100.00;76886.41;5051573;28;20021;-83
2023/04/17 00:14:09;;;;;;;37.28;28.50;;;;;;;-148.88;100.00;76890.50;5052072;28;20025;-83
2023/04/17 00:16:34;;;;;;;31.75;15.90;;;;;;;-148.88;100.00;76898.63;5052280;28;20553;-83
2023/04/17 00:18:59;;;;;;;30.83;16.90;;;;;;;-148.88;100.00;76886.41;5052728;28;20029;-84
2023/04/17 00:21:25;;;;;;;32.15;16.60;;;;;;;-148.88;100.00;76886.41;5051976;28;20112;-84
2023/04/17 00:23:50;;;;;;;43.88;28.20;;;;;;;-148.88;100.00;76896.59;5051749;28;20462;-83
2023/04/17 00:26:15;;;;;;;36.63;28.77;;;;;;;-148.88;100.00;76914.88;5050998;28;20025;-83
2023/04/17 00:28:41;;;;;;;37.28;16.55;;;;;;;-148.88;100.00;76902.69;5051113;28;20475;-84
2023/04/17 00:31:06;;;;;;;36.85;28.38;;;;;;;-148.88;100.00;76902.69;5051169;28;20035;-84
2023/04/17 00:33:31;;;;;;;32.13;16.65;;;;;;;-148.88;100.00;76898.63;5053795;28;20024;-83
2023/04/17 00:35:57;;;;;;;32.05;16.10;;;;;;;-148.88;100.00;76892.53;5053370;28;20043;-83
2023/04/17 00:38:22;;;;;;;35.92;27.25;;;;;;;-148.88;100.00;76868.13;5052393;28;20025;-83
2023/04/17 00:40:47;;;;;;;30.45;16.05;;;;;;;-148.88;100.00;76853.91;5052546;28;20054;-83
2023/04/17 00:43:13;;;;;;;36.45;17.98;;;;;;;-148.88;100.00;76841.72;5050901;28;20032;-83
2023/04/17 00:45:40;;;;;;;37.53;28.92;;;;;;;-148.88;100.00;76841.72;5051075;28;20036;-83
2023/04/17 00:48:07;;;;;;;41.40;31.42;;;;;;;-148.88;100.00;76837.66;5052034;28;20025;-82
2023/04/17 00:50:34;;;;;;;34.33;17.83;;;;;;;-148.88;100.00;76845.78;5052889;28;20021;-83
2023/04/17 00:53:00;;;;;;;33.78;16.63;;;;;;;-148.88;100.00;76813.28;5052486;28;20024;-84
2023/04/17 00:55:27;;;;;;;33.53;27.48;;;;;;;-148.88;100.00;76870.16;5052974;28;20387;-83
2023/04/17 00:57:54;;;;;;;31.90;16.55;;;;;;;-148.88;100.00;76872.19;5055716;28;20029;-83
2023/04/17 01:00:19;;;;;;;33.03;15.85;;;;;;;-148.88;100.00;76888.47;5055237;28;20052;-83
2023/04/17 01:02:45;;;;;;;28.80;16.13;;;;;;;-148.88;100.00;76849.84;5056018;28;20056;-83
2023/04/17 01:05:10;;;;;;;34.38;25.90;;;;;;;-148.88;100.00;76874.22;5056039;28;20103;-83
2023/04/17 01:07:37;;;;;;;34.17;25.98;;;;;;;-148.88;100.00;76831.56;5055626;28;20029;-83
2023/04/17 01:10:02;;;;;;;30.52;15.35;;;;;;;-148.88;100.00;76851.88;5056042;28;20021;-83
2023/04/17 01:12:28;;;;;;;27.83;14.60;;;;;;;-148.88;100.00;76868.13;5056213;28;20025;-81
2023/04/17 01:14:55;;;;;;;31.80;16.15;;;;;;;-148.88;100.00;76870.16;5055918;28;20076;-83
2023/04/17 01:17:21;;;;;;;28.58;15.13;;;;;;;-148.88;100.00;76862.03;5054368;28;20036;-84
2023/04/17 01:19:48;;;;;;;38.40;15.98;;;;;;;-148.88;100.00;76825.47;5055900;28;20029;-83
2023/04/17 01:22:15;;;;;;;30.35;25.90;;;;;;;-148.88;100.00;76835.63;5054126;28;20402;-83
2023/04/17 01:24:40;;;;;;;34.05;25.50;;;;;;;-148.88;100.00;76855.94;5054580;28;20025;-83
2023/04/17 01:27:05;;;;;;;24.80;13.75;;;;;;;-148.88;100.00;76876.25;5055548;28;20047;-83
2023/04/17 01:29:31;;;;;;;28.20;14.80;;;;;;;-148.88;100.00;76866.09;5055866;28;20099;-84
2023/04/17 01:31:56;;;;;;;33.38;25.67;;;;;;;-148.88;100.00;76866.09;5053850;28;20033;-83
2023/04/17 01:34:21;;;;;;;28.67;15.32;;;;;;;-148.88;100.00;76857.97;5053789;28;20412;-83
2023/04/17 01:36:47;;;;;;;26.05;14.00;;;;;;;-148.88;100.00;76876.25;5055822;28;20143;-83
2023/04/17 01:39:12;;;;;;;31.48;14.57;;;;;;;-148.88;100.00;76845.78;5055005;28;20077;-83
2023/04/17 01:41:37;;;;;;;30.25;14.82;;;;;;;-148.88;100.00;76902.69;5053846;28;20071;-83
2023/04/17 01:44:03;;;;;;;32.95;24.40;;;;;;;-148.88;100.00;76990.03;5053621;28;20116;-83
2023/04/17 01:46:28;;;;;;;27.95;13.80;;;;;;;-148.88;100.00;76985.97;5055134;28;20047;-82
2023/04/17 01:48:53;;;;;;;27.05;14.77;;;;;;;-148.88;100.00;76971.75;5054876;28;20105;-83
2023/04/17 01:51:19;;;;;;;25.13;14.07;;;;;;;-148.88;100.00;76912.84;5053736;28;20021;-83
2023/04/17 01:53:44;;;;;;;33.20;23.65;;;;;;;-148.88;100.00;76973.78;5053964;28;20056;-83
2023/04/17 01:56:10;;;;;;;30.17;23.65;;;;;;;-148.88;100.00;76977.84;5055727;28;20516;-83
2023/04/17 01:58:35;;;;;;;29.40;14.25;;;;;;;-148.88;100.00;76979.88;5054431;28;20412;-83
2023/04/17 02:01:04;;;;;;;27.90;14.40;;;;;;;-148.88;100.00;76943.31;5054656;28;20025;-83
2023/04/17 02:03:30;;;;;;;24.27;13.63;;;;;;;-148.88;100.00;76967.69;5053399;28;20013;-83
2023/04/17 02:05:56;;;;;;;31.98;23.77;;;;;;;-148.88;100.00;76988.00;5053424;28;20033;-84
2023/04/17 02:08:21;;;;;;;26.83;14.18;;;;;;;-148.88;100.00;77004.25;5052778;28;20043;-83
2023/04/17 02:10:46;;;;;;;29.05;14.73;;;;;;;-148.88;100.00;77006.31;5055028;28;20387;-83
2023/04/17 02:13:12;;;;;;;27.23;14.35;;;;;;;-148.88;100.00;76998.16;5055100;28;20440;-83
2023/04/17 02:15:37;;;;;;;27.27;14.20;;;;;;;-148.88;100.00;76963.63;5054697;28;20025;-83
2023/04/17 02:18:06;;;;;;;32.10;24.35;;;;;;;-148.88;100.00;76985.97;5054774;28;20036;-83
2023/04/17 02:20:33;;;;;;;25.67;13.40;;;;;;;-148.88;100.00;76996.13;5054783;28;20074;-83
2023/04/17 02:22:59;;;;;;;33.10;22.45;;;;;;;-148.88;100.00;76996.13;5053102;28;20228;-83
2023/04/17 02:25:25;;;;;;;28.67;13.77;;;;;;;-148.88;100.00;76975.81;5054803;28;20025;-83
2023/04/17 02:27:50;;;;;;;27.85;14.38;;;;;;;-148.88;100.00;77008.34;5052980;28;20395;-83
2023/04/17 02:30:15;;;;;;;25.60;13.10;;;;;;;-148.88;100.00;77000.19;5055057;28;20024;-83
2023/04/17 02:32:40;;;;;;;30.67;24.00;;;;;;;-148.88;100.00;77004.25;5055124;28;20017;-83
2023/04/17 02:35:06;;;;;;;29.35;14.10;;;;;;;-148.88;100.00;77002.22;5053498;28;20029;-82
2023/04/17 02:37:35;;;;;;;24.60;14.27;;;;;;;-148.88;100.00;76988.00;5054461;28;20025;-84
2023/04/17 02:40:00;;;;;;;30.50;24.55;;;;;;;-148.88;100.00;76985.97;5052981;28;20072;-85
2023/04/17 02:42:25;;;;;;;24.15;13.85;;;;;;;-148.88;100.00;76994.09;5052521;28;20052;-85
2023/04/17 02:44:52;;;;;;;30.02;14.60;;;;;;;-148.88;100.00;76992.06;5054139;28;20376;-83
2023/04/17 02:47:21;;;;;;;24.52;13.35;;;;;;;-148.88;100.00;77000.19;5053912;28;20057;-83
2023/04/17 02:49:46;;;;;;;27.73;13.80;;;;;;;-148.88;100.00;77000.19;5053177;28;20017;-83
2023/04/17 02:52:18;;;;;;;27.20;13.80;;;;;;;-148.88;100.00;76961.59;5054297;28;20084;-84
2023/04/17 02:54:44;;;;;;;24.70;13.65;;;;;;;-148.88;100.00;76914.88;5053930;28;20024;-83
2023/04/17 02:57:12;;;;;;;27.70;22.52;;;;;;;-148.88;100.00;76973.78;5052970;28;20025;-83
2023/04/17 02:59:37;;;;;;;29.63;14.00;;;;;;;-148.88;100.00;76998.16;5053385;28;20079;-84
2023/04/17 03:02:04;;;;;;;29.65;13.63;;;;;;;-148.88;100.00;76992.06;5055985;28;20032;-82
2023/04/17 03:04:33;;;;;;;26.38;15.30;;;;;;;-148.88;100.00;76988.00;5074793;28;20023;-82
2023/04/17 03:07:05;;;;;;;31.23;23.67;;;;;;;-148.88;100.00;76994.09;5073673;28;20037;-83
2023/04/17 03:09:32;;;;;;;26.15;13.73;;;;;;;-148.88;100.00;76979.88;5061649;28;20096;-83
2023/04/17 03:12:04;;;;;;;25.15;13.63;;;;;;;-148.88;100.00;76983.94;5061970;28;20044;-84
2023/04/17 03:14:32;;;;;;;28.35;14.13;;;;;;;-148.88;100.00;76971.75;5061637;28;20017;-83
2023/04/17 03:16:58;;;;;;;31.08;14.68;;;;;;;-148.88;100.00;76969.72;5059458;28;20032;-84
2023/04/17 03:19:34;;;;;;;30.85;14.95;;;;;;;-148.88;100.00;76957.53;5060376;28;20025;-84
2023/04/17 03:22:02;;;;;;;29.17;14.18;;;;;;;-148.88;100.00;77012.41;5063193;28;20079;-83
2023/04/17 03:24:35;;;;;;;31.75;24.17;;;;;;;-148.88;100.00;77022.56;5063131;28;20060;-84
2023/04/17 03:27:01;;;;;;;31.83;24.73;;;;;;;-148.88;100.00;76998.16;5060459;28;20043;-83
2023/04/17 03:29:26;;;;;;;31.60;24.02;;;;;;;-148.88;100.00;76996.13;5060827;28;20443;-83
2023/04/17 03:31:52;;;;;;;26.48;13.98;;;;;;;-148.88;100.00;77000.19;5060455;28;20049;-83
2023/04/17 03:34:18;;;;;;;30.15;14.57;;;;;;;-148.88;100.00;77030.69;5061839;28;20021;-83
2023/04/17 03:36:46;;;;;;;30.92;15.32;;;;;;;-148.88;100.00;77024.59;5061030;28;20507;-83
2023/04/17 03:39:15;;;;;;;27.73;14.88;;;;;;;-148.88;100.00;77046.94;5057512;28;20057;-83
2023/04/17 03:41:40;;;;;;;32.67;23.98;;;;;;;-148.88;100.00;77061.16;5056653;28;20442;-83
2023/04/17 03:44:07;;;;;;;27.17;14.02;;;;;;;-148.88;100.00;77055.06;5057538;28;20074;-83
2023/04/17 03:46:32;;;;;;;25.35;13.32;;;;;;;-148.88;100.00;77036.78;5056581;28;20036;-83
2023/04/17 03:48:58;;;;;;;29.98;23.90;;;;;;;-148.88;100.00;77073.34;5054835;28;20423;-84
2023/04/17 03:51:26;;;;;;;27.55;14.38;;;;;;;-148.88;100.00;77077.41;5054337;28;20037;-81
2023/04/17 03:53:51;;;;;;;28.73;14.93;;;;;;;-148.88;100.00;77073.34;5054155;28;20021;-82
2023/04/17 03:56:17;;;;;;;28.65;15.35;;;;;;;-148.88;100.00;77073.34;5055305;28;20035;-83
2023/04/17 03:58:42;;;;;;;30.48;14.30;;;;;;;-148.88;100.00;77075.38;5054748;28;20112;-82
2023/04/17 04:01:09;;;;;;;26.38;13.95;;;;;;;-148.88;100.00;77093.66;5055376;28;20108;-83
2023/04/17 04:03:37;;;;;;;33.40;23.88;;;;;;;-148.88;100.00;77081.47;5055028;28;20028;-81
2023/04/17 04:06:03;;;;;;;29.42;14.75;;;;;;;-148.88;100.00;77093.66;5054017;28;20033;-82
2023/04/17 04:08:28;;;;;;;30.05;14.98;;;;;;;-148.88;100.00;77093.66;5054083;28;20421;-80
2023/04/17 04:10:54;;;;;;;30.40;14.15;;;;;;;-148.88;100.00;77097.72;5054932;28;20059;-83
2023/04/17 04:13:19;;;;;;;27.45;14.10;;;;;;;-148.88;100.00;77095.69;5053649;28;20017;-82
2023/04/17 04:15:44;;;;;;;30.85;15.02;;;;;;;-148.88;100.00;77107.91;5055643;28;20093;-82
2023/04/17 04:18:10;;;;;;;29.85;15.18;;;;;;;-148.88;100.00;77105.84;5053674;28;20017;-83
2023/04/17 04:20:35;;;;;;;26.80;13.73;;;;;;;-148.88;100.00;77048.97;5055407;28;20025;-83
2023/04/17 04:23:02;;;;;;;28.08;14.38;;;;;;;-148.88;100.00;77105.84;5054507;28;20048;-83
2023/04/17 04:25:27;;;;;;;32.17;23.98;;;;;;;-148.88;100.00;77103.81;5055868;28;20434;-82
2023/04/17 04:27:53;;;;;;;24.13;12.80;;;;;;;-148.88;100.00;77065.22;5053002;28;20025;-82
2023/04/17 04:30:19;;;;;;;32.17;24.42;;;;;;;-148.88;100.00;77071.31;5054489;28;20545;-81
2023/04/17 04:32:45;;;;;;;32.72;23.27;;;;;;;-148.88;100.00;77077.41;5057250;28;20104;-82
2023/04/17 04:35:11;;;;;;;26.20;14.18;;;;;;;-148.88;100.00;77069.28;5058829;28;20060;-81
2023/04/17 04:37:36;;;;;;;27.08;13.95;;;;;;;-148.88;100.00;77079.44;5060686;28;20042;-84
2023/04/17 04:40:09;;;;;;;24.83;13.60;;;;;;;-148.88;100.00;77061.16;5063105;28;20056;-84
2023/04/17 04:42:34;;;;;;;26.65;13.52;;;;;;;-148.88;100.00;77071.31;5063206;28;20032;-83
2023/04/17 04:45:00;;;;;;;35.75;14.35;;;;;;;-148.88;100.00;77069.28;5064347;28;20020;-84
2023/04/17 04:47:25;;;;;;;26.10;15.20;;;;;;;-148.88;100.00;77073.34;5072505;28;20036;-84
2023/04/17 04:49:50;;;;;;;27.42;14.20;;;;;;;-148.88;100.00;77069.28;5073599;28;20059;-83
2023/04/17 04:52:16;;;;;;;29.48;14.35;;;;;;;-148.88;100.00;77091.63;5066952;28;20475;-84
2023/04/17 04:54:41;;;;;;;24.88;12.60;;;;;;;-148.88;100.00;77105.84;5066199;28;20025;-83
2023/04/17 04:57:06;;;;;;;25.92;13.98;;;;;;;-148.88;100.00;77109.94;5065420;28;20391;-83
2023/04/17 04:59:31;;;;;;;31.40;23.83;;;;;;;-148.88;100.00;77124.16;5060582;28;20083;-84
2023/04/17 05:01:57;;;;;;;28.35;13.95;;;;;;;-148.88;100.00;77124.16;5059777;28;20103;-83
2023/04/17 05:04:22;;;;;;;26.52;12.50;;;;;;;-148.88;100.00;77109.94;5057033;28;20423;-83
2023/04/17 05:06:47;;;;;;;28.48;13.73;;;;;;;-148.88;100.00;77122.13;5057193;28;20029;-82
2023/04/17 05:09:13;;;;;;;28.48;14.98;;;;;;;-148.88;100.00;77109.94;5072410;22;20055;-77
2023/04/17 05:11:38;;;;;;;25.73;14.00;;;;;;;-148.88;100.00;77132.28;5060241;28;20028;-78
2023/04/17 05:14:03;;;;;;;29.00;14.65;;;;;;;-148.88;100.00;77144.47;5057831;28;20017;-77
2023/04/17 05:16:29;;;;;;;32.42;23.35;;;;;;;-148.88;100.00;77126.19;5059123;28;20052;-78
2023/04/17 05:18:57;;;;;;;28.45;13.65;;;;;;;-148.88;100.00;77109.94;5057656;28;20025;-78
2023/04/17 05:21:26;;;;;;;27.25;13.40;;;;;;;-148.88;100.00;77128.22;5057872;28;20036;-79
2023/04/17 05:23:52;;;;;;;24.48;13.55;;;;;;;-148.88;100.00;77097.72;5058280;28;20029;-79
2023/04/17 05:26:17;;;;;;;30.52;13.63;;;;;;;-148.88;100.00;77065.22;5058856;28;20506;-78
2023/04/17 05:28:43;;;;;;;32.72;24.08;;;;;;;-148.88;100.00;77105.84;5058047;28;20021;-79
2023/04/17 05:31:09;;;;;;;25.13;13.27;;;;;;;-148.88;100.00;77114.00;5057905;28;20020;-79
2023/04/17 05:33:34;;;;;;;24.70;13.73;;;;;;;-148.88;100.00;77105.84;5057681;28;20069;-79
2023/04/17 05:36:00;;;;;;;25.80;13.80;;;;;;;-148.88;100.00;77107.91;5057989;28;20037;-79
2023/04/17 05:38:25;;;;;;;29.45;14.60;;;;;;;-148.88;100.00;77097.72;5059731;28;20025;-79
2023/04/17 05:40:51;;;;;;;24.42;14.25;;;;;;;-148.88;100.00;77105.84;5058341;28;20020;-78
2023/04/17 05:43:17;;;;;;;28.98;15.27;;;;;;;-148.88;100.00;77114.00;5058128;28;20536;-79
2023/04/17 05:45:43;;;;;;;32.97;15.40;;;;;;;-148.88;100.00;77099.75;5059421;28;20025;-78
2023/04/17 05:48:09;;;;;;;31.17;14.80;;;;;;;-148.88;100.00;77097.72;5057919;28;20033;-78
2023/04/17 05:50:36;;;;;;;37.70;24.63;;;;;;;-148.88;100.00;77089.59;5058933;28;20025;-78
2023/04/17 05:53:01;;;;;;;29.52;14.75;;;;;;;-148.88;100.00;77093.66;5057672;28;20021;-78
2023/04/17 05:55:27;;;;;;;30.05;14.52;;;;;;;-148.88;100.00;77089.59;5058471;28;20033;-78
2023/04/17 05:57:52;;;;;;;33.10;24.45;;;;;;;-148.88;100.00;77073.34;5057181;28;20025;-78
2023/04/17 06:00:19;;;;;;;26.42;15.00;;;;;;;-148.88;100.00;77063.19;5057169;28;20104;-78
2023/04/17 06:02:45;;;;;;;26.90;13.48;;;;;;;-148.88;100.00;77051.00;5058648;28;20025;-78
2023/04/17 06:05:10;;;;;;;25.85;14.68;;;;;;;-148.88;100.00;77065.22;5057684;28;20510;-78
2023/04/17 06:07:37;;;;;;;29.70;23.75;;;;;;;-148.88;100.00;77073.34;5058571;28;20458;-78
2023/04/17 06:10:04;;;;;;;32.42;15.60;;;;;;;-148.88;100.00;77069.28;5058391;28;20120;-78
2023/04/17 06:12:29;;;;;;;30.58;23.92;;;;;;;-148.88;100.00;77065.22;5057555;28;20028;-78
2023/04/17 06:14:55;;;;;;;26.55;13.90;;;;;;;-148.88;100.00;77069.28;5058168;28;20025;-78
2023/04/17 06:17:20;;;;;;;28.92;23.00;;;;;;;-148.88;100.00;77053.03;5056082;28;20029;-78
2023/04/17 06:19:46;;;;;;;31.23;23.23;;;;;;;-148.88;100.00;77065.22;5057438;28;20506;-78
2023/04/17 06:22:11;;;;;;;31.35;24.13;;;;;;;-148.88;100.00;77065.22;5058141;28;20042;-78
2023/04/17 06:24:36;;;;;;;33.50;22.77;;;;;;;-148.88;100.00;77048.97;5058592;28;20033;-78
2023/04/17 06:27:02;;;;;;;24.63;13.20;;;;;;;-148.88;100.00;77065.22;5058104;28;20021;-78
2023/04/17 06:29:28;;;;;;;29.98;14.00;;;;;;;-148.88;100.00;77069.28;5057628;28;20399;-78
2023/04/17 06:31:53;;;;;;;28.08;14.40;;;;;;;-148.88;100.00;77053.03;5058101;28;20075;-78
2023/04/17 06:34:19;;;;;;;27.00;13.88;;;;;;;-148.88;100.00;77089.59;5056391;28;20021;-78
2023/04/17 06:36:44;;;;;;;27.25;14.15;;;;;;;-148.88;100.00;77087.56;5057685;28;20033;-79
2023/04/17 06:39:10;;;;;;;29.08;21.75;;;;;;;-148.88;100.00;77081.47;5056439;28;20029;-78
2023/04/17 06:41:35;;;;;;;28.60;21.70;;;;;;;-148.88;100.00;77093.66;5057234;28;20027;-78
2023/04/17 06:44:00;;;;;;;30.67;13.43;;;;;;;-148.88;100.00;77093.66;5057150;28;20028;-78
2023/04/17 06:46:26;;;;;;;24.38;12.13;;;;;;;-148.88;100.00;77079.44;5057921;28;20108;-78
2023/04/17 06:48:51;;;;;;;29.63;21.65;;;;;;;-148.88;100.00;77065.22;5056354;28;20027;-78
2023/04/17 06:51:20;;;;;;;27.63;12.68;;;;;;;-148.88;100.00;77069.28;5057272;28;20151;-78
2023/04/17 06:53:46;;;;;;;18.35;10.73;;;;;;;-148.88;100.00;77042.88;5056747;28;20099;-78
2023/04/17 06:56:12;;;;;;;24.50;12.52;;;;;;;-148.88;100.00;77061.16;5057775;28;20016;-79
2023/04/17 06:58:42;;;;;;;22.60;11.88;;;;;;;-148.88;100.00;77026.63;5058085;28;20036;-76
2023/04/17 07:01:11;;;;;;;23.02;12.45;;;;;;;-148.88;100.00;77008.34;5057518;28;20044;-77
2023/04/17 07:03:41;;;;;;;26.17;19.67;;;;;;;-148.88;100.00;77016.47;5057437;28;20036;-78
2023/04/17 07:06:07;;;;;;;29.70;19.52;;;;;;;-148.88;100.00;77020.53;5058001;28;20033;-78
2023/04/17 07:08:32;;;;;;;23.05;11.43;;;;;;;-148.88;100.00;77028.66;5056744;28;20025;-78
2023/04/17 07:10:59;;;;;;;26.75;18.75;;;;;;;-148.88;100.00;77034.75;5057157;28;20035;-78
2023/04/17 07:13:24;;;;;;;20.20;11.15;;;;;;;-148.88;100.00;77004.25;5055700;28;20021;-78
2023/04/17 07:15:53;;;;;;;24.80;18.02;;;;;;;-148.88;100.00;77008.34;5055401;28;20021;-78
2023/04/17 07:18:20;;;;;;;22.92;11.10;;;;;;;-148.88;100.00;76945.34;5055704;28;20021;-78
2023/04/17 07:20:46;;;;;;;21.17;10.13;;;;;;;-148.88;96.27;76949.41;5057225;28;20509;-78
2023/04/17 07:23:11;;;;;;;23.05;11.05;;;;;;;-148.88;98.31;76975.81;5055761;28;20021;-78
2023/04/17 07:25:36;;;;;;;22.10;10.77;;;;;;;-148.88;98.79;76947.38;5055651;28;20021;-78
2023/04/17 07:28:01;;;;;;;22.55;17.10;;;;;;;-148.88;98.21;76937.22;5056674;28;20449;-78
2023/04/17 07:30:27;;;;;;;23.70;16.35;;;;;;;-148.88;96.93;76929.09;5056802;28;20021;-78
2023/04/17 07:32:52;;;;;;;21.33;11.88;;;;;;;-148.88;97.71;76910.81;5055999;28;20584;-78
2023/04/17 07:35:18;;;;;;;27.85;11.40;;;;;;;-148.88;96.95;76935.19;5057156;28;20535;-78
2023/04/17 07:37:43;;;;;;;21.98;16.55;;;;;;;-148.88;97.32;76963.63;5057714;28;20059;-78
2023/04/17 07:40:09;;;;;;;21.70;15.55;;;;;;;-148.88;96.81;76959.56;5056842;28;20070;-78
2023/04/17 07:42:35;;;;;;;21.02;14.77;;;;;;;-148.88;93.48;76951.44;5056310;28;20479;-78
2023/04/17 07:45:00;;;;;;;21.58;15.07;;;;;;;-148.88;92.21;76947.38;5056955;28;20082;-78
2023/04/17 07:47:25;;;;;;;23.77;15.38;;;;;;;-148.88;90.61;76939.25;5056986;28;20036;-77
2023/04/17 07:49:51;;;;;;;21.67;15.15;;;;;;;-148.88;91.73;76906.75;5056779;28;20025;-78
2023/04/17 07:52:16;;;;;;;18.20;8.60;;;;;;;-148.88;91.02;76896.59;5055433;28;20140;-78
2023/04/17 07:54:42;;;;;;;23.33;10.98;;;;;;;-148.88;89.40;76876.25;5055091;28;20024;-78
2023/04/17 07:57:08;;;;;;;22.20;10.40;;;;;;;-148.88;90.51;76847.81;5054805;28;20025;-78
2023/04/17 07:59:35;;;;;;;20.75;14.10;;;;;;;-148.88;87.38;76849.84;5056429;28;20372;-78
2023/04/17 08:02:00;;;;;;;16.35;12.40;;;;;;;-148.88;85.08;76839.69;5055056;28;20111;-78
2023/04/17 08:04:25;;;;;;;17.95;13.38;;;;;;;-148.88;84.84;76809.22;5055844;28;20147;-78
2023/04/17 08:06:51;;;;;;;20.45;10.07;;;;;;;-148.88;84.07;76817.34;5053999;28;20029;-76
2023/04/17 08:09:16;;;;;;;19.67;13.32;;;;;;;-148.88;84.41;76807.19;5054713;28;20542;-78
2023/04/17 08:11:44;;;;;;;18.20;14.02;;;;;;;-148.88;84.34;76780.78;5056415;28;20372;-78
2023/04/17 08:14:10;;;;;;;18.85;14.48;;;;;;;-148.88;86.73;76825.47;5056790;28;20013;-78
2023/04/17 08:16:36;;;;;;;17.30;9.88;;;;;;;-148.88;82.49;76799.06;5056233;28;20051;-78
2023/04/17 08:19:01;;;;;;;19.23;14.10;;;;;;;-148.88;82.51;76795.00;5057681;28;20032;-78
2023/04/17 08:21:26;;;;;;;19.58;13.40;;;;;;;-148.88;84.45;76788.91;5055098;28;20021;-78
2023/04/17 08:23:51;;;;;;;19.27;14.23;;;;;;;-148.88;86.26;76762.50;5055941;28;20434;-78
2023/04/17 08:26:19;;;;;;;19.23;13.00;;;;;;;-148.88;80.74;76768.59;5055989;28;20475;-79
2023/04/17 08:28:45;;;;;;;21.52;9.43;;;;;;;-148.88;80.22;76778.75;5054705;28;20021;-78
2023/04/17 08:31:10;;;;;;;18.30;12.98;;;;;;;-148.88;81.08;76784.84;5056299;28;20391;-79
2023/04/17 08:33:35;;;;;;;17.48;13.35;;;;;;;-148.88;81.47;76770.63;5055014;28;20365;-79
2023/04/17 08:36:00;;;;;;;19.85;13.82;;;;;;;-148.88;82.02;76750.28;5055073;28;20119;-79
2023/04/17 08:38:28;;;;;;;16.92;13.85;;;;;;;-148.88;81.64;76729.97;5057099;28;20355;-79
2023/04/17 08:40:59;;;;;;;18.77;13.20;;;;;;;-148.88;79.75;76727.94;5056362;28;20036;-78
2023/04/17 08:43:27;;;;;;;17.63;13.43;;;;;;;-148.88;82.69;76697.47;5054061;28;20024;-78
2023/04/17 08:45:54;;;;;;;18.27;13.80;;;;;;;-148.88;81.17;76695.44;5054366;28;20032;-77
2023/04/17 08:48:23;;;;;;;16.10;12.57;;;;;;;-148.88;77.49;76758.41;5055960;28;20025;-77
2023/04/17 08:50:50;;;;;;;16.77;12.85;;;;;;;-148.88;76.59;76786.88;5055698;28;20035;-76
2023/04/17 08:53:16;;;;;;;16.48;12.73;;;;;;;-148.88;79.31;76795.00;5054695;28;20025;-78
2023/04/17 08:55:43;;;;;;;16.35;13.07;;;;;;;-148.88;81.00;76813.28;5055293;28;20539;-78
2023/04/17 08:58:08;;;;;;;19.75;12.95;;;;;;;-148.88;81.05;76772.66;5054412;28;20025;-79
2023/04/17 09:00:35;;;;;;;21.48;13.20;;;;;;;-148.88;79.39;76768.59;5055413;28;20364;-78
2023/04/17 09:03:03;;;;;;;21.13;13.75;;;;;;;-148.88;80.89;76711.69;5052838;28;20029;-78
2023/04/17 09:05:32;;;;;;;21.20;14.82;;;;;;;-148.88;84.20;76695.44;5053967;28;20025;-78
2023/04/17 09:08:15;;;;;;;19.83;13.13;;;;;;;-148.88;81.63;76638.56;5053686;28;20029;-78
2023/04/17 09:10:43;;;;;;;16.77;12.95;;;;;;;-148.88;77.88;76622.31;5052710;28;20116;-77
2023/04/17 09:13:09;;;;;;;16.88;12.82;;;;;;;-148.88;74.83;76660.91;5053941;28;20021;-77
2023/04/17 09:15:35;;;;;;;15.02;12.52;;;;;;;-148.88;76.75;76642.63;5053554;28;20045;-78
2023/04/17 09:18:01;;;;;;;17.88;12.77;;;;;;;-148.88;77.17;76597.91;5053771;28;20024;-78
2023/04/17 09:20:27;;;;;;;14.65;11.38;;;;;;;-148.88;72.01;76597.91;5057785;28;20036;-77
2023/04/17 09:23:03;;;;;;;14.60;11.75;;;;;;;-148.88;70.51;76616.22;5057593;28;20020;-76
2023/04/17 09:25:29;;;;;;;15.70;11.68;;;;;;;-148.88;71.13;76601.97;5057388;28;20036;-78
2023/04/17 09:28:08;;;;;;;14.88;11.73;;;;;;;-148.88;68.96;76585.72;5056133;28;20021;-78
2023/04/17 09:30:36;;;;;;;15.43;11.48;;;;;;;-148.88;70.03;76559.31;5057371;28;20571;-78
2023/04/17 09:33:03;;;;;;;17.17;12.80;;;;;;;-148.88;71.50;76532.91;5057379;28;20112;-78
2023/04/17 09:35:28;;;;;;;15.73;12.13;;;;;;;-148.88;68.51;76516.66;5057702;28;20044;-78
2023/04/17 09:37:57;;;;;;;18.50;12.55;;;;;;;-148.88;71.57;76427.28;5056184;28;20502;-78
2023/04/17 09:40:24;;;;;;;19.23;12.82;;;;;;;-148.88;67.32;76453.69;5056750;28;20075;-78
2023/04/17 09:43:05;;;;;;;15.20;11.80;;;;;;;-148.88;73.32;76360.22;5056836;28;20025;-78
2023/04/17 09:45:34;;;;;;;17.58;12.32;;;;;;;-148.88;65.73;76439.47;5056229;28;20032;-77
2023/04/17 09:48:10;;;;;;;18.50;11.63;;;;;;;-148.88;63.84;76494.31;5056744;28;20060;-78
2023/04/17 09:50:36;;;;;;;17.45;11.63;;;;;;;-148.88;65.39;76524.78;5055350;28;20033;-78
2023/04/17 09:53:03;;;;;;;14.63;11.23;;;;;;;-148.88;67.63;76467.91;5056397;28;20112;-77
2023/04/17 09:55:30;;;;;;;15.77;11.68;;;;;;;-148.88;70.53;76526.81;5056598;28;20392;-78
2023/04/17 09:58:00;;;;;;;14.55;11.52;;;;;;;-148.88;73.07;76433.38;5057660;28;20033;-78
2023/04/17 10:00:26;;;;;;;16.85;11.70;;;;;;;-148.88;73.14;76333.81;5056419;28;20021;-77
2023/04/17 10:02:53;;;;;;;16.13;11.90;;;;;;;-148.88;67.94;76281.00;5057237;28;20063;-78
2023/04/17 10:05:27;;;;;;;16.80;12.05;;;;;;;-148.88;62.30;76311.47;5056873;28;20024;-78
2023/04/17 10:07:53;;;;;;;15.18;11.25;;;;;;;-148.88;60.99;76236.31;5056281;28;20028;-78
2023/04/17 10:10:36;;;;;;;12.93;9.48;;;;;;;-148.88;54.83;76354.13;5056822;28;20081;-78
2023/04/17 10:13:04;;;;;;;14.15;10.30;;;;;;;-148.88;55.22;76309.44;5055582;28;20387;-78
2023/04/17 10:15:31;;;;;;;14.40;10.00;;;;;;;-148.88;54.25;76299.28;5056267;28;20032;-78
2023/04/17 10:18:19;;;;;;;12.95;10.48;;;;;;;-148.88;61.84;76238.34;5054982;28;20021;-78
2023/04/17 10:20:47;;;;;;;13.60;10.18;;;;;;;-148.88;60.07;76159.13;5056626;28;20017;-78
2023/04/17 10:23:28;;;;;;;13.05;9.88;;;;;;;-148.88;56.34;76151.00;5056162;28;20024;-78
2023/04/17 10:26:24;;;;;;;18.35;10.93;;;;;;;-148.88;58.28;76073.78;5056227;28;20104;-77
2023/04/17 10:28:53;;;;;;;19.08;10.27;;;;;;;-148.88;52.78;76167.25;5059500;28;20094;-78
2023/04/17 10:31:24;;;;;;;18.15;11.18;;;;;;;-148.88;52.31;76285.06;5058569;28;20025;-78
2023/04/17 10:33:51;;;;;;;14.48;10.25;;;;;;;-148.88;55.11;76183.50;5057199;28;20025;-77
2023/04/17 10:36:38;;;;;;;15.13;10.30;;;;;;;-148.88;57.66;76183.50;5057630;28;20131;-77
2023/04/17 10:39:13;;;;;;;15.95;10.80;;;;;;;-148.88;52.39;76187.56;5054958;28;20017;-77
2023/04/17 10:42:04;;;;;;;16.48;11.15;;;;;;;-148.88;49.98;76146.94;5053828;28;20380;-78
2023/04/17 10:44:39;;;;;;;13.57;10.02;;;;;;;-148.88;48.04;76226.16;5054815;28;20047;-78
2023/04/17 10:47:09;;;;;;;11.93;9.55;;;;;;;-148.88;48.38;76183.50;5054771;28;20024;-78
2023/04/17 10:49:53;;;;;;;11.90;9.07;;;;;;;-148.88;46.84;76167.25;5053083;28;20021;-78
2023/04/17 10:52:31;;;;;;;13.02;9.57;;;;;;;-148.88;45.51;76195.69;5054466;28;20480;-78
2023/04/17 10:55:19;;;;;;;11.02;8.50;;;;;;;-148.88;46.56;76177.41;5054748;28;20025;-78
2023/04/17 10:58:12;;;;;;;11.88;9.20;;;;;;;-148.88;46.52;76108.31;5055005;28;20549;-77